الصفحة الرئيسية
METAR-TAF:

METAR-TAF

مطار :

Vanua Lava, فانواتو

دائرة عرض: 13-51-06S, خط طول: 167-32-13E, ارتفاع: 2 متر

مراقبة الطقس الحالي

تاريخ ووقت الإصدار 3ساعات و 33 دقيقة قبل الساعة 03:00UTC
ريح 12 عقدة من الشمال
درجة الحرارة 29°درجة مئوية
الرطوبة 84%
ضغط 996 hPa
الرؤية 10 كم أو أكثر
غيوم مفككة على ارتفاع 1800 قدم
ملبد بالغيوم على ارتفاع 10000 قدم

METAR: NVSC 060300Z 36012KT 9999 BKN018 OVC100 29/26 Q0996

زمن: 17:33 (06:33 UTC)

توقعات

تاريخ ووقت الإصدار 8ساعات و 13 دقيقة قبل الساعة 22:20UTC
التوقعات صالحة من06 الساعة 00 UTC إلى 06 الساعة 24 UTC
ريح 23 عقدة من الشمال/الشمال الغربي تتزايد حتى 33 عقدة
الرؤية: 5000 متر
غيوم مفككة على ارتفاع 2000 قدم
ملبد بالغيوم على ارتفاع 10000 قدم
غيوم متفرقة على ارتفاع 600 قدم
غيوم مفككة على ارتفاع 1500 قدم
غيوم قليلة على ارتفاع 2200 قدم, مزنة ركامية.
ملبد بالغيوم على ارتفاع 6000 قدم
عاصفة رعدية, مطر

TAF: NVSC 052220Z 0600/0624 34023G33KT 9000 BKN020 OVC100 INTER 0600/0606 5000 TSRA SCT006 BKN015 FEW022CB OVC060

أرصاد الطقس والتوقعات من أكثر من 4000 مطار (تقارير الطقس للمطار METAR والتنبؤ بالطقس بالمطارTAF).

المحطات المتاحة هي النقط الصفراء والحمراء على الخريطة.

حرك المؤشر فوق النقطة لمعرفة اسم المحطة.

ثم انقر لمعرفة أرصاد وتوقعات الطقس.

لتغيير الخارطة: اضغط على الأزرار الخضراء مع رمز الصليب الأسود للتكبير. على الزر الأخضر مع شرطة للتصغير، أو على الأسهم الخضراء للخرائط المجاورة.


METAR-TAF: